Decoded Metar for PASL (SLEETMUTE in AK, USA) (IATA:SLQ) | Meteo·Mobile Aviation Weather
aviador You're here:

PASL Decoded Metar

SLEETMUTE in AK, USA
Report Time2018-10-17 23:56:00
UTC Time2018-10-18 00:46:05
Flight Rules mvfr MVFR
WindCalm
Visibility9999 m
Phenomena:N/A
Clouds:Scattered 015 Hf
Broken 020 Hf
Expected CloudBase > 800 ft AGL from Temp-Dew spread
Ceiling2,000 ft
Temp09°C (ISA -6)
Dew Point07°C (87% RH)
AAT8.3°C
QNH1000 hPa
Density Alt85 ft
Elevation180 ft
Report Wrong Elevation
Raw Report
PASL 172356Z AUTO 00000KT 10SM SCT015 BKN020 09/07 A2954 RMK AO2
RAB09E25 SLP000 P0000 60001 T00890067 10089 20056 50001=

Extra information for PASL:More info

Metar Taf Metar & Taf Last 4 Metars F.Rules Stats Wind Profile Meteogram Temp Stats Airport Information Weather charts Add Link Nearby VenuesMetar ALERT Operation Metar Decoded Social comments

AIRNAV info for PASL